Portada
METAR-TAF:

METAR-TAF

Aeroports :

Sulaymaniyya, Iraq

latitud: 35-33-39N, longitud: 45-18-52E, altitud: 760 m

Observació

L'informe es va fer fa 1 hora i 3 minuts, a les 17:00 UTC
Vent 4 kt del Nord/Nord-Oest
Temperatura 32°C
Humitat 26%
Pressió 1006 hPa
Visibilitat 10 km o més
sense núvols per sota de 1500 mi sense presència de cumulonimbus.

METAR: ORSU 111700Z 34004KT CAVOK 32/10 Q1006

Hora: 21:03 (18:03 UTC)

Pronòstic

L'informe es va fer fa 1 hora i 3 minuts, a les 17:00 UTC
Pronòstic vàlid del 11 a les 18 UTC al 12 a les 18 UTC
Vent 6 kt del Nord-Oest
Visibilitat 10 km o més
sense núvols per sota de 1500 mi sense presència de cumulonimbus.
Evolucionant progressivament
l' 11 a les 23 UTC al 12 a les 01 UTC
Vent 14 kt del Nord-Est
Evolucionant progressivament
l' 12 a les 08 UTC al 12 a les 10 UTC
Vent 12 kt del Oest
Visibilitat 10 km o més
Núvols disperses a una alçada de 4500 ft

TAF: ORSU 111700Z 1118/1218 32006KT CAVOK BECMG 1123/1201 04014KT BECMG 1208/1210 28012KT 9999 SCT045

Observacions i pronòstics meteorològics de més de 4000 aeroports (METAR i TAF).

Les estacions disponibles són els punts grocs i vermells al mapa.

Posi el ratolí al punt desitjat per veure el nom de l'estació.

Feu clic per veure les observacions i els pronòstics meteorològics.

Per canviar el mapa: feu clic els botons verds amb una creu de color negre per apropar; al botó verd amb un guió per allunyar la imatge; o en les fletxes verdes per a mapes adjacents.


METAR-TAF: